Time;durP1;ratioP1;P1;durP2;ratioP2;P2;SDS_P1;SDS_P2;PMS_P1;PMS_P2;Temp;Humidity;BMP_temperature;BMP_pressure;BME280_temperature;BME280_humidity;BME280_pressure;Samples;Min_cycle;Max_cycle;Signal;HPM_P1;HPM_P2
2021/08/16 00:01:57;;;;;;;24.77;14.65;;;691.80;1612.80;;;;;;5115042;27;20027;-79
2021/08/16 00:04:23;;;;;;;21.35;14.93;;;691.40;1638.40;;;;;;5114709;27;20039;-81
2021/08/16 00:06:49;;;;;;;28.75;14.73;;;691.20;1664.00;;;;;;5133817;27;20491;-80
2021/08/16 00:09:15;;;;;;;24.65;16.38;;;691.20;1664.00;;;;;;5115172;28;20465;-77
2021/08/16 00:11:40;;;;;;;21.98;15.73;;;666.50;1664.00;;;;;;5133304;27;20421;-80
2021/08/16 00:14:07;;;;;;;34.85;15.40;;;666.50;1664.00;;;;;;5133076;27;20090;-76
2021/08/16 00:16:35;;;;;;;27.42;16.17;;;666.20;1689.60;;;;;;5133494;27;20027;-77
2021/08/16 00:19:01;;;;;;;22.58;15.55;;;666.30;1689.60;;;;;;5130611;27;20019;-78
2021/08/16 00:21:27;;;;;;;24.05;16.58;;;666.30;1689.60;;;;;;5133498;27;20019;-80
2021/08/16 00:23:53;;;;;;;24.73;16.50;;;666.30;1689.60;;;;;;5133363;27;20452;-77
2021/08/16 00:26:19;;;;;;;21.42;16.23;;;666.20;1689.60;;;;;;5114780;28;20068;-78
2021/08/16 00:28:45;;;;;;;28.02;17.13;;;665.90;1715.20;;;;;;5137753;27;20391;-80
2021/08/16 00:31:10;;;;;;;21.75;16.80;;;665.90;1715.20;;;;;;5140169;27;20019;-76
2021/08/16 00:33:36;;;;;;;26.20;16.55;;;665.90;1715.20;;;;;;5139673;27;20460;-78
2021/08/16 00:36:02;;;;;;;27.23;17.38;;;666.00;1715.20;;;;;;5140053;27;20029;-78
2021/08/16 00:38:28;;;;;;;31.13;16.63;;;666.00;1715.20;;;;;;5140291;27;20083;-78
2021/08/16 00:40:54;;;;;;;30.30;16.98;;;666.00;1715.20;;;;;;5140727;27;20101;-78
2021/08/16 00:43:20;;;;;;;26.58;16.52;;;666.00;1715.20;;;;;;5121896;27;20452;-79
2021/08/16 00:45:46;;;;;;;25.42;15.88;;;665.90;1715.20;;;;;;5121234;27;20035;-80
2021/08/16 00:48:12;;;;;;;26.52;16.33;;;665.70;1740.80;;;;;;5139856;27;20015;-78
2021/08/16 00:50:39;;;;;;;29.13;17.65;;;640.50;1740.80;;;;;;5121734;27;20103;-78
2021/08/16 00:53:05;;;;;;;22.50;18.65;;;640.60;1740.80;;;;;;5139985;27;20072;-76
2021/08/16 00:55:31;;;;;;;31.00;18.65;;;640.50;1766.40;;;;;;5121399;27;20023;-79
2021/08/16 00:58:01;;;;;;;29.60;18.80;;;640.40;1766.40;;;;;;5139716;27;20102;-79
2021/08/16 01:00:27;;;;;;;28.80;19.67;;;640.30;1766.40;;;;;;5139910;27;20007;-78
2021/08/16 01:02:53;;;;;;;31.27;19.42;;;640.40;1766.40;;;;;;5139813;27;20023;-78
2021/08/16 01:05:20;;;;;;;32.45;20.05;;;640.40;1766.40;;;;;;5139952;27;20492;-77
2021/08/16 01:07:48;;;;;;;27.55;18.48;;;640.40;1766.40;;;;;;5139934;27;20015;-77
2021/08/16 01:10:16;;;;;;;29.45;19.42;;;640.40;1766.40;;;;;;5139494;27;20029;-78
2021/08/16 01:12:42;;;;;;;34.58;18.17;;;640.30;1766.40;;;;;;5139678;27;20015;-77
2021/08/16 01:15:12;;;;;;;27.77;20.17;;;640.40;1766.40;;;;;;5121249;27;20024;-78
2021/08/16 01:17:42;;;;;;;26.83;18.88;;;640.40;1766.40;;;;;;5139942;27;20016;-81
2021/08/16 01:20:11;;;;;;;26.13;17.40;;;640.40;1766.40;;;;;;5140079;27;20021;-80
2021/08/16 01:22:37;;;;;;;31.38;17.60;;;640.30;1766.40;;;;;;5121160;27;20027;-80
2021/08/16 01:25:06;;;;;;;31.17;18.42;;;640.30;1766.40;;;;;;5118466;27;20100;-78
2021/08/16 01:27:31;;;;;;;28.60;18.98;;;640.20;1766.40;;;;;;5140158;27;20075;-79
2021/08/16 01:30:02;;;;;;;30.10;18.83;;;640.20;1766.40;;;;;;5120751;27;20193;-78
2021/08/16 01:32:28;;;;;;;32.80;17.48;;;640.20;1766.40;;;;;;5137035;27;20079;-80
2021/08/16 01:34:54;;;;;;;32.80;19.05;;;640.20;1766.40;;;;;;5140146;27;20152;-79
2021/08/16 01:37:19;;;;;;;26.45;16.30;;;640.20;1766.40;;;;;;5140320;27;20023;-79
2021/08/16 01:39:45;;;;;;;26.35;17.00;;;640.20;1766.40;;;;;;5137234;27;20487;-76
2021/08/16 01:42:11;;;;;;;32.67;17.17;;;640.20;1766.40;;;;;;5117615;27;20026;-77
2021/08/16 01:44:37;;;;;;;32.95;18.20;;;640.20;1766.40;;;;;;5135004;27;20042;-79
2021/08/16 01:47:03;;;;;;;25.67;17.38;;;640.20;1766.40;;;;;;5135515;27;20026;-80
2021/08/16 01:49:28;;;;;;;27.73;17.80;;;640.20;1766.40;;;;;;5135071;27;20023;-80
2021/08/16 01:51:55;;;;;;;28.92;16.60;;;640.40;1766.40;;;;;;5134953;27;20068;-78
2021/08/16 01:54:21;;;;;;;27.27;17.05;;;640.50;1766.40;;;;;;5116085;27;20035;-76
2021/08/16 01:56:47;;;;;;;33.70;18.05;;;640.50;1766.40;;;;;;5135712;27;20116;-79
2021/08/16 01:59:13;;;;;;;34.95;18.10;;;640.50;1740.80;;;;;;5136013;27;20081;-79
2021/08/16 02:01:38;;;;;;;28.63;17.70;;;640.50;1766.40;;;;;;5136340;27;20019;-81
2021/08/16 02:04:04;;;;;;;30.98;20.00;;;640.50;1766.40;;;;;;5117611;27;20038;-77
2021/08/16 02:06:30;;;;;;;28.63;17.63;;;640.40;1766.40;;;;;;5136310;27;20015;-78
2021/08/16 02:08:56;;;;;;;26.13;17.45;;;640.40;1766.40;;;;;;5117739;27;20027;-79
2021/08/16 02:11:25;;;;;;;29.23;17.45;;;640.40;1766.40;;;;;;5136061;27;20031;-80
2021/08/16 02:13:51;;;;;;;25.45;16.70;;;640.30;1792.00;;;;;;5117567;27;20152;-80
2021/08/16 02:16:17;;;;;;;25.65;16.58;;;640.40;1766.40;;;;;;5136015;27;20527;-79
2021/08/16 02:18:43;;;;;;;34.95;17.95;;;640.30;1792.00;;;;;;5135921;27;20391;-80
2021/08/16 02:21:08;;;;;;;25.45;15.90;;;640.30;1792.00;;;;;;5135843;27;20076;-78
2021/08/16 02:23:34;;;;;;;28.88;16.30;;;640.00;1817.60;;;;;;5135459;27;20102;-78
2021/08/16 02:26:00;;;;;;;28.38;17.45;;;615.30;1817.60;;;;;;5117287;27;20042;-79
2021/08/16 02:28:27;;;;;;;26.73;15.85;;;615.30;1843.20;;;;;;5117491;27;20159;-79
2021/08/16 02:30:52;;;;;;;34.10;17.88;;;615.20;1843.20;;;;;;5116954;27;20050;-77
2021/08/16 02:33:18;;;;;;;23.23;16.23;;;615.20;1843.20;;;;;;5135468;27;20464;-78
2021/08/16 02:35:44;;;;;;;34.33;16.17;;;615.20;1843.20;;;;;;5116771;27;20031;-79
2021/08/16 02:38:11;;;;;;;23.50;15.60;;;615.20;1843.20;;;;;;5135525;27;20068;-81
2021/08/16 02:40:38;;;;;;;24.45;15.13;;;615.30;1843.20;;;;;;5135550;27;20388;-80
2021/08/16 02:43:04;;;;;;;19.15;13.73;;;615.20;1868.80;;;;;;5135463;27;20027;-78
2021/08/16 02:45:30;;;;;;;35.60;16.08;;;615.00;1868.80;;;;;;5117149;27;20030;-79
2021/08/16 02:47:56;;;;;;;21.95;14.48;;;614.90;1868.80;;;;;;5116962;27;20398;-79
2021/08/16 02:50:22;;;;;;;21.05;14.35;;;614.90;1894.40;;;;;;5116308;27;20037;-80
2021/08/16 02:52:48;;;;;;;19.05;15.10;;;614.80;1894.40;;;;;;5135184;27;20019;-79
2021/08/16 02:55:14;;;;;;;22.88;14.43;;;614.90;1894.40;;;;;;5135131;27;20019;-81
2021/08/16 02:57:40;;;;;;;25.35;13.15;;;614.90;1868.80;;;;;;5117219;27;20030;-79
2021/08/16 03:00:07;;;;;;;22.17;13.65;;;614.90;1894.40;;;;;;5134843;27;20023;-79
2021/08/16 03:02:33;;;;;;;24.60;14.00;;;614.90;1894.40;;;;;;5116576;27;20118;-79
2021/08/16 03:04:58;;;;;;;21.88;14.50;;;615.00;1868.80;;;;;;5135007;27;20102;-80
2021/08/16 03:07:24;;;;;;;22.90;14.90;;;615.00;1868.80;;;;;;5116251;27;20031;-79
2021/08/16 03:09:50;;;;;;;25.60;13.80;;;615.00;1868.80;;;;;;5135375;27;20524;-80
2021/08/16 03:12:18;;;;;;;18.55;12.68;;;615.00;1868.80;;;;;;5116478;27;20028;-78
2021/08/16 03:14:44;;;;;;;19.13;13.68;;;615.00;1868.80;;;;;;5134643;27;20019;-80
2021/08/16 03:17:10;;;;;;;18.75;12.73;;;615.00;1894.40;;;;;;5134676;27;20007;-80
2021/08/16 03:19:36;;;;;;;19.83;12.13;;;615.00;1894.40;;;;;;5116498;27;20110;-79
2021/08/16 03:22:02;;;;;;;27.88;12.52;;;615.00;1894.40;;;;;;5116320;27;20114;-79
2021/08/16 03:24:30;;;;;;;19.50;12.07;;;614.90;1894.40;;;;;;5115990;27;20069;-81
2021/08/16 03:26:55;;;;;;;22.40;12.68;;;615.00;1894.40;;;;;;5116323;27;20034;-80
2021/08/16 03:29:21;;;;;;;22.42;12.77;;;615.00;1894.40;;;;;;5116269;27;20023;-79
2021/08/16 03:31:47;;;;;;;18.98;12.18;;;615.10;1894.40;;;;;;5134576;27;20500;-78
2021/08/16 03:34:13;;;;;;;21.73;13.20;;;615.10;1894.40;;;;;;5134648;27;20019;-77
2021/08/16 03:36:39;;;;;;;22.58;13.23;;;615.20;1894.40;;;;;;5134530;27;20083;-80
2021/08/16 03:39:05;;;;;;;19.20;13.43;;;615.10;1894.40;;;;;;5134518;27;20020;-79
2021/08/16 03:41:31;;;;;;;16.85;12.43;;;615.10;1894.40;;;;;;5134476;27;20023;-77
2021/08/16 03:43:56;;;;;;;21.65;12.77;;;615.10;1894.40;;;;;;5134330;27;20062;-80
2021/08/16 03:46:22;;;;;;;19.55;12.50;;;615.20;1894.40;;;;;;5134330;27;20054;-81
2021/08/16 03:48:48;;;;;;;21.50;12.00;;;615.20;1894.40;;;;;;5131201;27;20046;-80
2021/08/16 03:51:14;;;;;;;14.50;11.77;;;615.20;1894.40;;;;;;5134387;27;20098;-79
2021/08/16 03:53:40;;;;;;;17.50;11.98;;;615.30;1868.80;;;;;;5115911;27;20023;-77
2021/08/16 03:56:06;;;;;;;20.25;13.77;;;615.20;1894.40;;;;;;5115417;27;20054;-80
2021/08/16 03:58:32;;;;;;;21.73;12.20;;;615.30;1868.80;;;;;;5115773;27;20031;-81
2021/08/16 04:00:58;;;;;;;20.30;12.27;;;640.00;1868.80;;;;;;5115695;27;20471;-81
2021/08/16 04:03:24;;;;;;;27.63;13.70;;;640.10;1868.80;;;;;;5133213;27;20047;-80
2021/08/16 04:05:50;;;;;;;22.17;12.40;;;640.20;1868.80;;;;;;5114703;27;20058;-80
2021/08/16 04:08:15;;;;;;;24.85;12.30;;;640.10;1868.80;;;;;;5115461;27;20455;-81
2021/08/16 04:10:41;;;;;;;26.40;13.45;;;640.10;1894.40;;;;;;5134084;27;20026;-79
2021/08/16 04:13:07;;;;;;;32.20;14.23;;;640.00;1868.80;;;;;;5135346;27;20015;-78
2021/08/16 04:15:33;;;;;;;25.00;12.85;;;615.30;1894.40;;;;;;5142188;27;19999;-78
2021/08/16 04:17:58;;;;;;;23.80;13.40;;;615.20;1894.40;;;;;;5117851;27;20027;-79
2021/08/16 04:20:25;;;;;;;21.55;11.95;;;615.20;1894.40;;;;;;5133665;27;20389;-78
2021/08/16 04:22:50;;;;;;;17.75;11.80;;;615.10;1894.40;;;;;;5115241;28;20027;-79
2021/08/16 04:25:18;;;;;;;15.88;11.15;;;615.10;1894.40;;;;;;5133334;27;20122;-78
2021/08/16 04:27:44;;;;;;;19.98;11.82;;;615.10;1894.40;;;;;;5133636;28;20564;-77
2021/08/16 04:30:12;;;;;;;21.27;12.18;;;615.20;1868.80;;;;;;5131305;28;20034;-81
2021/08/16 04:32:39;;;;;;;20.27;11.65;;;615.10;1868.80;;;;;;5115332;28;20480;-81
2021/08/16 04:35:05;;;;;;;16.33;11.02;;;615.20;1894.40;;;;;;5115030;28;20154;-82
2021/08/16 04:37:38;;;;;;;18.55;11.30;;;615.10;1868.80;;;;;;5130675;28;20015;-78
2021/08/16 04:40:06;;;;;;;17.48;10.88;;;615.10;1894.40;;;;;;5115403;28;20020;-80
2021/08/16 04:42:32;;;;;;;19.95;11.82;;;615.10;1894.40;;;;;;5131054;28;20499;-79
2021/08/16 04:44:57;;;;;;;16.25;11.07;;;615.10;1894.40;;;;;;5133420;28;20047;-80
2021/08/16 04:47:23;;;;;;;22.30;11.68;;;615.20;1868.80;;;;;;5115154;28;20015;-78
2021/08/16 04:49:49;;;;;;;26.58;13.25;;;615.10;1894.40;;;;;;5115096;28;20015;-79
2021/08/16 04:52:15;;;;;;;20.65;11.77;;;615.20;1868.80;;;;;;5114861;28;20067;-78
2021/08/16 04:54:41;;;;;;;22.30;12.02;;;615.10;1894.40;;;;;;5132550;28;20043;-77
2021/08/16 04:57:07;;;;;;;19.83;12.63;;;615.10;1894.40;;;;;;5132465;28;20087;-78
2021/08/16 04:59:32;;;;;;;25.50;12.23;;;615.10;1894.40;;;;;;5132904;28;20544;-76
2021/08/16 05:01:58;;;;;;;24.40;11.95;;;615.10;1920.00;;;;;;5132728;28;20593;-77
2021/08/16 05:04:24;;;;;;;29.23;12.18;;;615.00;1920.00;;;;;;5132748;28;20031;-76
2021/08/16 05:06:50;;;;;;;26.60;12.23;;;615.10;1920.00;;;;;;5132850;28;20068;-76
2021/08/16 05:09:15;;;;;;;25.05;11.38;;;615.00;1920.00;;;;;;5114751;28;20100;-75
2021/08/16 05:11:41;;;;;;;25.77;11.75;;;615.00;1920.00;;;;;;5133097;28;20380;-75
2021/08/16 05:14:07;;;;;;;22.30;11.68;;;615.10;1920.00;;;;;;5133005;27;20023;-75
2021/08/16 05:16:34;;;;;;;21.95;12.32;;;615.10;1945.60;;;;;;5136838;27;20560;-78
2021/08/16 05:19:00;;;;;;;18.73;12.07;;;615.10;1920.00;;;;;;5137585;27;20023;-77
2021/08/16 05:21:26;;;;;;;22.92;11.85;;;615.20;1945.60;;;;;;5136248;27;20027;-77
2021/08/16 05:23:51;;;;;;;21.02;12.65;;;615.20;1920.00;;;;;;5136400;27;20090;-78
2021/08/16 05:26:17;;;;;;;23.20;13.43;;;615.30;1920.00;;;;;;5136574;27;20027;-78
2021/08/16 05:28:43;;;;;;;25.00;12.57;;;615.30;1920.00;;;;;;5133424;27;20027;-77
2021/08/16 05:31:09;;;;;;;27.70;13.20;;;640.10;1894.40;;;;;;5125839;27;20015;-78
2021/08/16 05:33:34;;;;;;;17.90;12.50;;;640.20;1894.40;;;;;;5132311;27;20468;-77
2021/08/16 05:36:00;;;;;;;22.23;12.70;;;640.20;1894.40;;;;;;5131389;27;20047;-77
2021/08/16 05:38:26;;;;;;;21.15;12.45;;;640.20;1868.80;;;;;;5133138;27;20095;-78
2021/08/16 05:40:51;;;;;;;26.08;13.55;;;640.40;1868.80;;;;;;5117990;27;20027;-78
2021/08/16 05:43:17;;;;;;;20.95;13.93;;;640.60;1843.20;;;;;;5136085;27;20032;-76
2021/08/16 05:45:43;;;;;;;24.90;12.10;;;640.90;1817.60;;;;;;5136019;27;20058;-75
2021/08/16 05:48:09;;;;;;;24.50;13.75;;;640.90;1843.20;;;;;;5135939;27;20019;-77
2021/08/16 05:50:34;;;;;;;20.98;13.63;;;665.60;1868.80;;;;;;5136131;27;20095;-76
2021/08/16 05:53:00;;;;;;;22.90;12.15;;;665.70;1868.80;;;;;;5136123;27;20356;-77
2021/08/16 05:55:26;;;;;;;16.15;10.93;;;665.90;1868.80;;;;;;5135831;27;20061;-77
2021/08/16 05:57:52;;;;;;;17.48;10.95;;;666.00;1792.00;;;;;;5136023;27;20038;-78
2021/08/16 06:00:20;;;;;;;18.90;11.23;;;666.10;1817.60;;;;;;5135927;27;20076;-76
2021/08/16 06:02:47;;;;;;;24.20;11.02;;;666.30;1792.00;;;;;;5135938;27;20426;-78
2021/08/16 06:05:12;;;;;;;17.25;10.05;;;691.20;1766.40;;;;;;5136037;27;20054;-79
2021/08/16 06:07:38;;;;;;;16.15;10.23;;;691.40;1792.00;;;;;;5136117;27;20050;-79
2021/08/16 06:10:05;;;;;;;17.27;10.48;;;691.40;1792.00;;;;;;5117075;27;20036;-78
2021/08/16 06:12:31;;;;;;;22.35;11.20;;;691.40;1792.00;;;;;;5136342;27;20026;-79
2021/08/16 06:14:57;;;;;;;22.17;10.35;;;691.50;1740.80;;;;;;5104847;28;20102;-79
2021/08/16 06:17:22;;;;;;;14.23;9.63;;;691.70;1715.20;;;;;;5134410;27;20062;-78
2021/08/16 06:19:48;;;;;;;15.75;10.88;;;691.90;1715.20;;;;;;5136136;27;20034;-76
2021/08/16 06:22:14;;;;;;;18.52;11.05;;;692.00;1689.60;;;;;;5135942;27;20023;-79
2021/08/16 06:24:39;;;;;;;20.27;10.95;;;692.10;1715.20;;;;;;5135610;27;20481;-79
2021/08/16 06:27:05;;;;;;;19.38;11.52;;;692.00;1715.20;;;;;;5135319;27;20059;-78
2021/08/16 06:29:33;;;;;;;21.75;11.25;;;692.00;1715.20;;;;;;5135822;27;20050;-76
2021/08/16 06:31:59;;;;;;;25.85;11.93;;;716.80;1740.80;;;;;;5135831;27;20015;-76
2021/08/16 06:34:25;;;;;;;17.40;11.82;;;716.80;1740.80;;;;;;5135667;27;20515;-76
2021/08/16 06:36:55;;;;;;;21.45;12.95;;;717.10;1715.20;;;;;;5135718;27;20055;-78
2021/08/16 06:39:21;;;;;;;19.27;11.32;;;717.20;1689.60;;;;;;5135673;27;20068;-76
2021/08/16 06:41:53;;;;;;;16.58;9.80;;;717.00;1689.60;;;;;;5129114;27;20034;-77
2021/08/16 06:44:20;;;;;;;123.60;24.35;;;717.20;1664.00;;;;;;5124465;27;20023;-76
2021/08/16 06:46:46;;;;;;;29.30;11.60;;;717.30;1689.60;;;;;;5126381;27;20102;-77
2021/08/16 06:49:13;;;;;;;13.57;9.85;;;717.40;1664.00;;;;;;5115122;28;20461;-78
2021/08/16 06:51:39;;;;;;;14.65;10.00;;;717.50;1612.80;;;;;;5114922;28;20028;-76
2021/08/16 06:54:05;;;;;;;12.75;9.85;;;717.60;1612.80;;;;;;5123870;27;20106;-77
2021/08/16 06:56:30;;;;;;;13.82;10.13;;;717.70;1612.80;;;;;;5135277;27;20114;-77
2021/08/16 06:58:56;;;;;;;18.52;10.15;;;717.70;1587.20;;;;;;5135438;27;20031;-76
2021/08/16 07:01:25;;;;;;;20.50;9.35;;;742.40;1664.00;;;;;;5116961;27;20564;-76
2021/08/16 07:03:55;;;;;;;15.15;9.63;;;742.40;1612.80;;;;;;5133775;27;20066;-77
2021/08/16 07:06:21;;;;;;;20.92;10.25;;;742.50;1587.20;;;;;;5134342;27;20059;-77
2021/08/16 07:08:47;;;;;;;18.48;9.82;;;742.60;1612.80;;;;;;5134610;27;20027;-78
2021/08/16 07:11:13;;;;;;;30.90;10.77;;;742.60;1638.40;;;;;;5135177;27;20023;-78
2021/08/16 07:13:39;;;;;;;31.55;11.50;;;742.60;1612.80;;;;;;5135213;27;20019;-80
2021/08/16 07:16:06;;;;;;;14.35;9.50;;;742.60;1612.80;;;;;;5134539;27;20042;-80
2021/08/16 07:18:35;;;;;;;19.45;9.90;;;742.80;1638.40;;;;;;5134620;27;20385;-77
2021/08/16 07:21:04;;;;;;;20.38;11.23;;;742.80;1612.80;;;;;;5135383;27;20015;-77
2021/08/16 07:23:31;;;;;;;19.60;9.73;;;743.00;1587.20;;;;;;5131494;27;20104;-76
2021/08/16 07:26:00;;;;;;;16.90;9.65;;;743.10;1561.60;;;;;;5134226;27;20019;-79
2021/08/16 07:28:29;;;;;;;17.38;10.15;;;743.30;1587.20;;;;;;5134201;27;20037;-76
2021/08/16 07:30:56;;;;;;;15.55;9.40;;;768.10;1536.00;;;;;;5134473;27;20031;-78
2021/08/16 07:33:22;;;;;;;13.65;8.70;;;768.30;1510.40;;;;;;5126336;27;20012;-78
2021/08/16 07:35:48;;;;;;;14.52;8.95;;;768.40;1510.40;;;;;;5118250;27;20028;-77
2021/08/16 07:38:14;;;;;;;16.58;8.70;;;768.40;1484.80;;;;;;5127494;27;20064;-76
2021/08/16 07:40:39;;;;;;;13.18;9.45;;;768.50;1510.40;;;;;;5116231;27;20049;-77
2021/08/16 07:43:05;;;;;;;12.77;9.07;;;768.30;1484.80;;;;;;5117973;27;20026;-78
2021/08/16 07:45:31;;;;;;;13.02;9.63;;;768.40;1510.40;;;;;;5115948;27;20031;-78
2021/08/16 07:47:57;;;;;;;20.67;10.10;;;768.60;1484.80;;;;;;5101243;27;20057;-76
2021/08/16 07:50:23;;;;;;;18.73;10.05;;;768.80;1459.20;;;;;;5112296;27;20588;-78
2021/08/16 07:52:49;;;;;;;15.15;9.77;;;768.70;1433.60;;;;;;5133805;27;20023;-77
2021/08/16 07:55:15;;;;;;;19.88;9.80;;;768.90;1484.80;;;;;;5115238;27;20043;-78
2021/08/16 07:57:40;;;;;;;14.27;9.57;;;793.70;1510.40;;;;;;5133845;27;20070;-77
2021/08/16 08:00:08;;;;;;;19.95;9.70;;;793.90;1510.40;;;;;;5133750;27;20026;-77
2021/08/16 08:02:42;;;;;;;15.43;9.18;;;794.00;1484.80;;;;;;5133546;27;20037;-78
2021/08/16 08:05:10;;;;;;;17.15;9.75;;;794.10;1459.20;;;;;;5131307;27;20430;-78
2021/08/16 08:07:36;;;;;;;13.95;8.52;;;794.10;1433.60;;;;;;5133266;27;20019;-76
2021/08/16 08:10:02;;;;;;;20.05;11.88;;;794.20;1408.00;;;;;;5133519;27;20023;-77
2021/08/16 08:12:28;;;;;;;14.38;9.27;;;794.20;1382.40;;;;;;5125263;27;20493;-77
2021/08/16 08:14:54;;;;;;;17.05;9.82;;;794.40;1408.00;;;;;;5125082;27;20124;-78
2021/08/16 08:17:20;;;;;;;18.65;9.50;;;794.50;1382.40;;;;;;5133283;27;20784;-78
2021/08/16 08:19:46;;;;;;;10.20;8.48;;;819.30;1382.40;;;;;;5133049;27;20095;-78
2021/08/16 08:22:12;;;;;;;12.45;8.15;;;819.30;1382.40;;;;;;5133216;27;20015;-78
2021/08/16 08:24:38;;;;;;;14.82;9.40;;;819.30;1356.80;;;;;;5132544;27;20039;-78
2021/08/16 08:27:04;;;;;;;18.90;10.10;;;819.30;1356.80;;;;;;5133054;27;20023;-75
2021/08/16 08:29:30;;;;;;;18.50;9.27;;;819.30;1356.80;;;;;;5133063;28;20384;-76
2021/08/16 08:31:55;;;;;;;20.67;10.23;;;819.40;1305.60;;;;;;5133165;28;20016;-78
2021/08/16 08:34:21;;;;;;;14.57;8.77;;;819.60;1331.20;;;;;;5132973;28;20020;-76
2021/08/16 08:36:47;;;;;;;15.57;9.05;;;819.70;1280.00;;;;;;5133753;28;20038;-77
2021/08/16 08:39:12;;;;;;;11.43;8.35;;;819.80;1305.60;;;;;;5116813;28;20046;-77
2021/08/16 08:41:39;;;;;;;19.35;10.20;;;819.80;1280.00;;;;;;5113202;28;20077;-78
2021/08/16 08:44:10;;;;;;;14.73;9.15;;;819.30;1280.00;;;;;;5113265;28;20502;-78
2021/08/16 08:46:38;;;;;;;11.45;8.70;;;819.80;1280.00;;;;;;5126314;28;20015;-76
2021/08/16 08:49:04;;;;;;;15.93;9.30;;;819.80;1280.00;;;;;;5114236;28;20102;-76
2021/08/16 08:51:30;;;;;;;11.77;8.43;;;820.00;1254.40;;;;;;5117027;28;20415;-78
2021/08/16 08:53:56;;;;;;;12.57;8.73;;;820.10;1254.40;;;;;;5124764;27;20027;-76
2021/08/16 08:56:21;;;;;;;16.77;9.38;;;820.10;1254.40;;;;;;5119137;27;20045;-76
2021/08/16 08:58:49;;;;;;;13.73;9.02;;;820.10;1254.40;;;;;;5137385;27;20042;-77
2021/08/16 09:01:14;;;;;;;14.60;9.65;;;844.80;1280.00;;;;;;5137647;27;20373;-78
2021/08/16 09:03:51;;;;;;;18.52;9.52;;;844.90;1254.40;;;;;;5134937;27;20033;-76
2021/08/16 09:06:38;;;;;;;16.05;11.05;;;844.90;1280.00;;;;;;5134214;27;20399;-79
2021/08/16 09:09:07;;;;;;;15.57;10.68;;;844.90;1228.80;;;;;;5134985;27;20015;-78
2021/08/16 09:11:33;;;;;;;20.52;10.70;;;845.00;1254.40;;;;;;5136927;27;20053;-77
2021/08/16 09:14:00;;;;;;;14.43;10.85;;;845.10;1254.40;;;;;;5136852;27;20476;-76
2021/08/16 09:16:29;;;;;;;15.05;9.85;;;845.00;1280.00;;;;;;5118385;27;20066;-79
2021/08/16 09:18:56;;;;;;;16.50;9.77;;;845.10;1305.60;;;;;;5136523;27;20016;-77
2021/08/16 09:21:33;;;;;;;12.70;9.73;;;845.30;1254.40;;;;;;5118592;27;20158;-77
2021/08/16 09:24:00;;;;;;;16.33;10.68;;;845.40;1280.00;;;;;;5136369;27;20040;-77
2021/08/16 09:26:31;;;;;;;27.05;11.10;;;845.40;1254.40;;;;;;5136090;27;20023;-76
2021/08/16 09:29:18;;;;;;;16.02;10.13;;;845.40;1254.40;;;;;;5136498;27;20041;-78
2021/08/16 09:31:53;;;;;;;13.05;9.40;;;845.40;1228.80;;;;;;5135618;27;20027;-79
2021/08/16 09:34:31;;;;;;;14.05;9.90;;;845.70;1254.40;;;;;;5116482;27;20054;-76
2021/08/16 09:37:01;;;;;;;15.10;10.27;;;870.40;1254.40;;;;;;5135357;27;20027;-79
2021/08/16 09:39:28;;;;;;;16.23;9.63;;;870.50;1228.80;;;;;;5135720;27;20524;-79
2021/08/16 09:42:04;;;;;;;17.40;10.82;;;870.60;1228.80;;;;;;5117560;27;20106;-76
2021/08/16 09:44:31;;;;;;;15.98;10.05;;;870.70;1228.80;;;;;;5133487;27;20024;-78
2021/08/16 09:47:09;;;;;;;15.80;10.50;;;870.70;1203.20;;;;;;5136223;27;20456;-76
2021/08/16 09:49:35;;;;;;;18.30;10.88;;;870.90;1177.60;;;;;;5134449;27;20019;-79
2021/08/16 09:52:11;;;;;;;18.67;10.52;;;870.90;1203.20;;;;;;5136327;27;20376;-76
2021/08/16 09:54:40;;;;;;;19.13;15.50;;;871.00;1152.00;;;;;;5132380;27;20055;-76
2021/08/16 09:57:07;;;;;;;12.70;9.82;;;871.20;1177.60;;;;;;5108738;27;20102;-78
2021/08/16 09:59:34;;;;;;;16.05;10.55;;;896.10;1126.40;;;;;;5134595;27;20547;-78
2021/08/16 10:02:02;;;;;;;19.77;10.35;;;896.20;1100.80;;;;;;5142080;27;20015;-78
2021/08/16 10:04:32;;;;;;;15.02;9.65;;;896.40;1075.20;;;;;;5134583;27;20031;-77
2021/08/16 10:06:58;;;;;;;13.13;9.13;;;896.50;1075.20;;;;;;5128437;27;20043;-77
2021/08/16 10:09:25;;;;;;;14.25;9.95;;;896.60;1049.60;;;;;;5131000;27;20035;-78
2021/08/16 10:11:55;;;;;;;11.10;8.10;;;896.50;1049.60;;;;;;5127947;27;20027;-78
2021/08/16 10:14:32;;;;;;;15.45;9.50;;;896.20;1075.20;;;;;;5111673;27;20073;-78
2021/08/16 10:17:01;;;;;;;12.20;9.23;;;896.00;1075.20;;;;;;5112565;27;20073;-77
2021/08/16 10:19:40;;;;;;;20.15;10.18;;;871.30;1100.80;;;;;;5135018;27;20063;-78
2021/08/16 10:22:08;;;;;;;15.55;10.48;;;871.30;1100.80;;;;;;5131692;27;20027;-78
2021/08/16 10:24:34;;;;;;;18.00;9.63;;;896.50;1075.20;;;;;;5131601;27;20046;-77
2021/08/16 10:27:03;;;;;;;12.65;8.98;;;896.60;1049.60;;;;;;5115838;27;20031;-77
2021/08/16 10:29:30;;;;;;;10.75;8.63;;;896.90;1075.20;;;;;;5154336;27;20079;-78
2021/08/16 10:31:59;;;;;;;14.10;9.45;;;896.70;1049.60;;;;;;5153979;27;20038;-79
2021/08/16 10:34:38;;;;;;;21.42;9.05;;;896.80;1049.60;;;;;;5156357;27;20091;-79
2021/08/16 10:37:08;;;;;;;15.18;8.38;;;896.90;1049.60;;;;;;5138866;27;20062;-79
2021/08/16 10:39:37;;;;;;;17.08;7.93;;;896.80;1049.60;;;;;;5136085;27;20015;-80
2021/08/16 10:42:08;;;;;;;13.65;7.78;;;896.60;998.40;;;;;;5136076;27;20038;-80
2021/08/16 10:44:41;;;;;;;14.40;7.88;;;896.40;1049.60;;;;;;5131507;27;20027;-78
2021/08/16 10:47:08;;;;;;;9.60;8.15;;;896.20;1049.60;;;;;;5129810;27;20023;-79
2021/08/16 10:49:38;;;;;;;13.05;8.55;;;896.20;1075.20;;;;;;5128777;27;20019;-77
2021/08/16 10:52:06;;;;;;;10.77;7.97;;;896.50;1049.60;;;;;;5114824;27;20031;-80
2021/08/16 10:54:34;;;;;;;13.05;9.13;;;896.40;1075.20;;;;;;5133726;27;20122;-80
2021/08/16 10:57:00;;;;;;;15.90;8.38;;;896.90;1075.20;;;;;;5129228;27;20023;-78
2021/08/16 10:59:29;;;;;;;13.20;7.85;;;921.90;1075.20;;;;;;5133730;27;20019;-79
2021/08/16 11:01:57;;;;;;;11.65;7.63;;;922.20;1024.00;;;;;;5133309;27;20047;-78
2021/08/16 11:04:27;;;;;;;11.50;7.18;;;922.40;1024.00;;;;;;5133603;27;20031;-80
2021/08/16 11:06:55;;;;;;;8.95;7.20;;;922.50;972.80;;;;;;5134309;27;20360;-78
2021/08/16 11:09:26;;;;;;;10.35;7.07;;;947.40;998.40;;;;;;5134150;27;20042;-79
2021/08/16 11:11:54;;;;;;;13.35;6.78;;;947.80;972.80;;;;;;5116087;27;20024;-78
2021/08/16 11:14:24;;;;;;;12.43;6.65;;;947.90;896.00;;;;;;5116878;27;20019;-81
2021/08/16 11:16:51;;;;;;;9.18;7.07;;;947.90;896.00;;;;;;5126695;27;20038;-79
2021/08/16 11:19:18;;;;;;;11.02;6.45;;;947.90;870.40;;;;;;5113275;27;20030;-78
2021/08/16 11:21:54;;;;;;;10.50;6.80;;;948.00;870.40;;;;;;5128426;27;20419;-78
2021/08/16 11:24:27;;;;;;;9.45;6.68;;;948.10;896.00;;;;;;5121118;27;20036;-77
2021/08/16 11:26:53;;;;;;;9.27;6.13;;;972.90;896.00;;;;;;5126454;27;20031;-78
2021/08/16 11:29:24;;;;;;;13.32;7.00;;;972.90;896.00;;;;;;5134711;27;20027;-78
2021/08/16 11:31:52;;;;;;;13.00;6.85;;;973.10;896.00;;;;;;5130652;27;20063;-80
2021/08/16 11:34:17;;;;;;;14.05;6.47;;;973.00;896.00;;;;;;5134845;27;20055;-80
2021/08/16 11:36:43;;;;;;;8.80;7.13;;;973.10;896.00;;;;;;5133892;27;20540;-77
2021/08/16 11:39:09;;;;;;;11.85;6.43;;;973.10;896.00;;;;;;5133815;27;20070;-76
2021/08/16 11:41:35;;;;;;;10.93;6.55;;;973.00;896.00;;;;;;5133925;27;20026;-77
2021/08/16 11:44:11;;;;;;;9.63;7.18;;;973.30;921.60;;;;;;5133269;27;20119;-76
2021/08/16 11:46:37;;;;;;;9.98;7.07;;;973.20;921.60;;;;;;5133759;27;20034;-78
2021/08/16 11:49:08;;;;;;;15.30;7.20;;;973.30;896.00;;;;;;5133432;27;20015;-78
2021/08/16 11:51:34;;;;;;;9.68;6.60;;;973.60;921.60;;;;;;5133421;27;20023;-78
2021/08/16 11:54:00;;;;;;;11.27;7.80;;;973.40;896.00;;;;;;5133574;27;20023;-78
2021/08/16 11:56:25;;;;;;;9.90;7.13;;;973.40;896.00;;;;;;5131543;27;20080;-81
2021/08/16 11:58:51;;;;;;;14.43;8.13;;;973.60;921.60;;;;;;5154758;27;20361;-78
2021/08/16 12:01:19;;;;;;;9.65;7.10;;;973.70;896.00;;;;;;5133715;27;20043;-80
2021/08/16 12:03:45;;;;;;;10.05;6.97;;;973.70;896.00;;;;;;5109954;28;20031;-82